Time;durP1;ratioP1;P1;durP2;ratioP2;P2;SDS_P1;SDS_P2;PMS_P1;PMS_P2;Temp;Humidity;BMP_temperature;BMP_pressure;BME280_temperature;BME280_humidity;BME280_pressure;Samples;Min_cycle;Max_cycle;Signal;HPM_P1;HPM_P2
2022/11/09 00:01:27;;;;;;;102.00;69.20;;;;;;;12.43;72.98;101637.31;4903002;29;20051;-82
2022/11/09 00:04:04;;;;;;;;;;;;;;;12.50;73.46;101651.84;4904536;29;20131;-81
2022/11/09 00:06:32;;;;;;;107.60;68.03;;;;;;;12.43;73.12;101640.00;4901832;29;20044;-81
2022/11/09 00:09:02;;;;;;;107.22;68.50;;;;;;;12.22;73.07;101591.97;4902571;29;20117;-81
2022/11/09 00:11:33;;;;;;;110.07;69.72;;;;;;;12.61;72.92;101647.34;4900531;29;20443;-82
2022/11/09 00:14:00;;;;;;;101.72;65.82;;;;;;;12.48;72.86;101630.69;4885910;29;20051;-83
2022/11/09 00:16:29;;;;;;;99.22;65.82;;;;;;;12.44;73.26;101634.56;4899704;29;20083;-82
2022/11/09 00:18:57;;;;;;;103.45;67.00;;;;;;;12.48;73.24;101646.66;4899231;29;20051;-81
2022/11/09 00:21:25;;;;;;;103.60;65.13;;;;;;;12.32;73.35;101620.41;4898628;29;20118;-81
2022/11/09 00:23:53;;;;;;;107.88;67.18;;;;;;;12.32;73.57;101619.56;4897672;29;20063;-82
2022/11/09 00:26:21;;;;;;;101.00;66.10;;;;;;;11.23;73.27;101432.13;4916799;29;20105;-81
2022/11/09 00:28:48;;;;;;;102.72;66.78;;;;;;;12.46;73.78;101648.59;4901852;29;20259;-82
2022/11/09 00:31:18;;;;;;;99.13;66.55;;;;;;;12.43;73.74;101643.53;4898935;29;20066;-83
2022/11/09 00:33:48;;;;;;;99.03;66.53;;;;;;;12.50;73.22;101644.72;4901548;29;20055;-82
2022/11/09 00:36:15;;;;;;;97.18;62.67;;;;;;;12.31;72.97;101629.38;4902198;29;20143;-82
2022/11/09 00:38:41;;;;;;;99.45;67.10;;;;;;;12.10;73.35;101602.63;4902959;29;20059;-83
2022/11/09 00:41:10;;;;;;;99.47;67.35;;;;;;;12.36;73.56;101668.94;4901058;29;20164;-82
2022/11/09 00:43:37;;;;;;;99.47;66.53;;;;;;;12.34;73.91;101669.06;4902117;29;20059;-83
2022/11/09 00:46:06;;;;;;;98.78;65.03;;;;;;;12.28;73.81;101668.69;4900988;29;20047;-83
2022/11/09 00:48:34;;;;;;;103.30;66.38;;;;;;;12.09;74.14;101632.91;4902031;29;20148;-82
2022/11/09 00:51:02;;;;;;;98.22;65.63;;;;;;;12.20;74.20;101658.66;4902507;29;20174;-82
2022/11/09 00:53:32;;;;;;;93.47;62.28;;;;;;;12.29;74.51;101662.41;4900792;29;20393;-81
2022/11/09 00:56:04;;;;;;;83.85;54.42;;;;;;;12.21;74.37;101648.84;4900568;29;20051;-79
2022/11/09 00:58:48;;;;;;;79.57;53.53;;;;;;;11.74;74.71;101571.75;4900968;29;20052;-82
2022/11/09 01:01:16;;;;;;;75.28;51.42;;;;;;;12.43;74.46;101667.50;4903306;29;20056;-81
2022/11/09 01:03:44;;;;;;;67.72;47.03;;;;;;;12.31;74.71;101633.84;4900566;29;20051;-81
2022/11/09 01:06:20;;;;;;;73.47;47.42;;;;;;;12.09;74.72;101597.44;4900032;29;20544;-82
2022/11/09 01:08:47;;;;;;;65.45;44.40;;;;;;;12.57;74.12;101653.91;4901501;29;20059;-82
2022/11/09 01:11:15;;;;;;;59.67;41.83;;;;;;;12.57;74.03;101645.91;4899963;29;20086;-82
2022/11/09 01:13:45;;;;;;;63.20;43.83;;;;;;;11.84;74.16;101521.34;4902015;29;20064;-82
2022/11/09 01:16:18;;;;;;;65.18;45.10;;;;;;;12.42;73.62;101606.34;4904128;29;20043;-80
2022/11/09 01:18:45;;;;;;;66.38;43.70;;;;;;;12.76;74.10;101657.72;4918656;29;20055;-78
2022/11/09 01:21:14;;;;;;;57.65;41.78;;;;;;;12.81;73.25;101660.88;4907682;29;20673;-81
2022/11/09 01:23:44;;;;;;;59.63;42.42;;;;;;;12.50;73.24;101586.13;4900131;29;20162;-81
2022/11/09 01:26:16;;;;;;;62.35;42.70;;;;;;;12.32;73.35;101566.31;4896824;29;20271;-81
2022/11/09 01:28:43;;;;;;;60.05;43.05;;;;;;;12.89;73.54;101661.09;4907828;29;20083;-82
2022/11/09 01:31:13;;;;;;;64.28;44.95;;;;;;;12.73;72.83;101623.34;4911185;29;20051;-83
2022/11/09 01:33:46;;;;;;;65.32;46.30;;;;;;;12.93;72.69;101643.88;4899825;29;20213;-81
2022/11/09 01:36:23;;;;;;;67.50;46.60;;;;;;;12.63;73.00;101596.63;4899771;29;20271;-83
2022/11/09 01:38:50;;;;;;;87.47;58.17;;;;;;;12.77;71.50;101592.84;4902043;29;20062;-82
2022/11/09 01:41:27;;;;;;;78.22;54.40;;;;;;;12.90;71.62;101620.16;4901021;29;20377;-82
2022/11/09 01:44:04;;;;;;;85.13;55.70;;;;;;;13.00;72.46;101631.72;4899974;29;20050;-81
2022/11/09 01:46:39;;;;;;;88.03;56.42;;;;;;;12.95;71.57;101617.09;4898856;29;20051;-81
2022/11/09 01:49:39;;;;;;;89.65;58.15;;;;;;;13.15;71.79;101642.09;4900302;29;20062;-79
2022/11/09 01:52:18;;;;;;;92.53;59.17;;;;;;;13.21;71.15;101626.44;4898196;29;20304;-81
2022/11/09 01:54:56;;;;;;;97.28;62.00;;;;;;;13.28;70.84;101626.81;4899898;29;20051;-81
2022/11/09 01:57:37;;;;;;;90.93;59.47;;;;;;;12.82;70.50;101564.81;4901314;29;20051;-81
2022/11/09 02:00:10;;;;;;;95.07;58.75;;;;;;;13.04;70.15;101590.53;4898170;29;20060;-81
2022/11/09 02:02:43;;;;;;;97.25;62.63;;;;;;;12.72;70.13;101542.59;4899612;29;20134;-82
2022/11/09 02:05:20;;;;;;;90.47;60.80;;;;;;;13.28;70.01;101625.94;4900727;29;20062;-82
2022/11/09 02:07:48;;;;;;;96.18;63.47;;;;;;;13.14;69.71;101605.75;4901612;29;20617;-81
2022/11/09 02:10:37;;;;;;;91.20;61.47;;;;;;;13.26;70.12;101620.72;4900308;29;20438;-82
2022/11/09 02:13:08;;;;;;;101.00;60.92;;;;;;;13.10;70.55;101598.97;4897759;29;20066;-82
2022/11/09 02:15:35;;;;;;;100.10;63.40;;;;;;;13.04;70.70;101595.84;4898606;29;20055;-82
2022/11/09 02:18:09;;;;;;;100.07;63.08;;;;;;;13.13;70.02;101604.03;4898671;29;20056;-82
2022/11/09 02:20:45;;;;;;;90.10;60.97;;;;;;;13.26;69.95;101634.06;4899369;29;20480;-80
2022/11/09 02:23:12;;;;;;;90.72;61.42;;;;;;;13.21;70.40;101625.59;4898861;29;20144;-81
2022/11/09 02:25:44;;;;;;;96.10;60.88;;;;;;;12.49;69.08;101491.19;4900733;29;20068;-79
2022/11/09 02:28:17;;;;;;;95.85;59.97;;;;;;;12.55;69.71;101509.34;4900429;29;20515;-80
2022/11/09 02:30:50;;;;;;;96.50;61.95;;;;;;;13.17;69.49;101608.16;4899677;29;20143;-81
2022/11/09 02:33:17;;;;;;;85.63;61.20;;;;;;;13.36;69.04;101634.16;4898499;29;20166;-82
2022/11/09 02:35:55;;;;;;;97.72;60.38;;;;;;;13.20;69.40;101606.09;4898221;29;20541;-77
2022/11/09 02:38:22;;;;;;;89.65;60.63;;;;;;;13.19;69.01;101603.53;4900670;29;20424;-81
2022/11/09 02:40:51;;;;;;;91.60;60.17;;;;;;;13.20;69.42;101605.22;4897257;29;20059;-80
2022/11/09 02:43:18;;;;;;;93.70;58.38;;;;;;;13.32;69.42;101638.88;4897119;29;20310;-80
2022/11/09 02:45:46;;;;;;;99.47;58.63;;;;;;;13.30;69.43;101632.88;4899647;29;20415;-81
2022/11/09 02:48:12;;;;;;;85.82;55.33;;;;;;;13.29;68.70;101611.66;4902608;29;20059;-80
2022/11/09 02:50:42;;;;;;;87.65;56.17;;;;;;;13.26;69.18;101604.72;4898694;29;20142;-81
2022/11/09 02:53:08;;;;;;;89.32;57.75;;;;;;;13.51;68.42;101624.84;4899476;29;20114;-81
2022/11/09 02:55:35;;;;;;;93.03;60.30;;;;;;;13.37;68.54;101618.00;4915150;29;20381;-82
2022/11/09 02:58:02;;;;;;;100.80;61.25;;;;;;;13.18;68.55;101588.50;4898632;29;20055;-82
2022/11/09 03:00:29;;;;;;;98.70;60.40;;;;;;;12.53;68.81;101494.47;4898017;29;20786;-80
2022/11/09 03:02:55;;;;;;;88.60;60.17;;;;;;;13.21;68.68;101591.78;4898468;29;20059;-81
2022/11/09 03:05:22;;;;;;;91.88;59.67;;;;;;;13.23;69.13;101592.50;4898123;29;20557;-80
2022/11/09 03:07:55;;;;;;;86.15;60.60;;;;;;;13.02;69.23;101572.97;4898419;29;20048;-82
2022/11/09 03:10:22;;;;;;;89.05;60.05;;;;;;;13.01;69.37;101576.59;4900339;29;20048;-82
2022/11/09 03:12:49;;;;;;;88.38;57.47;;;;;;;13.03;69.35;101588.84;4899487;29;20463;-82
2022/11/09 03:15:16;;;;;;;93.53;62.58;;;;;;;13.08;69.67;101603.59;4904601;29;20499;-82
2022/11/09 03:17:43;;;;;;;98.70;64.63;;;;;;;13.00;69.61;101589.09;4902299;29;20110;-82
2022/11/09 03:20:10;;;;;;;97.70;63.92;;;;;;;12.83;69.34;101544.34;4901729;29;20402;-82
2022/11/09 03:22:36;;;;;;;101.75;66.15;;;;;;;13.25;69.11;101613.69;4900173;29;20588;-83
2022/11/09 03:25:04;;;;;;;101.20;65.63;;;;;;;13.30;69.11;101627.53;4902373;29;20170;-82
2022/11/09 03:27:35;;;;;;;98.22;62.97;;;;;;;13.33;69.03;101627.25;4899551;29;20060;-82
2022/11/09 03:30:03;;;;;;;109.55;65.03;;;;;;;13.23;68.89;101599.66;4901952;29;20051;-80
2022/11/09 03:32:29;;;;;;;106.15;66.93;;;;;;;13.30;69.11;101627.53;4898647;29;20126;-82
2022/11/09 03:34:57;;;;;;;106.53;68.13;;;;;;;13.23;69.03;101621.00;4901180;29;20345;-81
2022/11/09 03:37:24;;;;;;;93.80;66.25;;;;;;;13.25;68.66;101605.69;4902708;29;20056;-82
2022/11/09 03:39:52;;;;;;;104.85;68.47;;;;;;;13.04;68.50;101574.53;4900232;29;20139;-81
2022/11/09 03:42:19;;;;;;;97.38;68.82;;;;;;;12.94;68.58;101551.47;4901772;29;20814;-79
2022/11/09 03:44:46;;;;;;;105.35;69.70;;;;;;;12.98;68.88;101568.84;4899742;29;20090;-81
2022/11/09 03:47:30;;;;;;;99.13;66.83;;;;;;;13.23;68.79;101613.81;4901050;29;20047;-82
2022/11/09 03:50:02;;;;;;;92.93;65.38;;;;;;;13.19;69.39;101603.53;4900893;29;20579;-82
2022/11/09 03:52:32;;;;;;;105.75;66.75;;;;;;;13.34;69.51;101634.28;4902627;29;20805;-81
2022/11/09 03:54:59;;;;;;;96.55;67.72;;;;;;;13.14;69.19;101595.09;4902206;29;20429;-82
2022/11/09 03:57:26;;;;;;;98.82;66.20;;;;;;;13.28;69.42;101623.28;4902552;29;20064;-82
2022/11/09 03:59:55;;;;;;;99.03;68.72;;;;;;;13.31;69.11;101634.53;4901268;29;20138;-83
2022/11/09 04:02:22;;;;;;;103.07;69.72;;;;;;;13.22;69.48;101630.78;4899828;29;20066;-82
2022/11/09 04:04:49;;;;;;;96.43;65.57;;;;;;;13.31;69.07;101633.69;4900969;29;20370;-82
2022/11/09 04:07:15;;;;;;;107.72;71.00;;;;;;;13.21;69.83;101623.78;4901318;29;20553;-81
2022/11/09 04:09:42;;;;;;;105.57;69.00;;;;;;;12.79;69.96;101561.56;4904627;29;20707;-82
2022/11/09 04:12:11;;;;;;;102.60;66.80;;;;;;;12.81;69.58;101562.28;4897880;29;20569;-81
2022/11/09 04:14:38;;;;;;;111.22;70.50;;;;;;;13.15;70.18;101639.44;4902520;29;20047;-81
2022/11/09 04:17:04;;;;;;;99.35;66.03;;;;;;;13.05;69.62;101602.88;4900310;29;20409;-82
2022/11/09 04:19:32;;;;;;;103.78;67.53;;;;;;;13.31;69.74;101639.88;4903692;29;20346;-82
2022/11/09 04:22:01;;;;;;;109.55;69.60;;;;;;;13.33;68.97;101626.44;4899841;29;20269;-82
2022/11/09 04:24:28;;;;;;;103.43;69.93;;;;;;;13.35;68.69;101629.78;4899005;29;20055;-81
2022/11/09 04:26:55;;;;;;;103.47;71.88;;;;;;;13.32;68.88;101630.88;4901617;29;20636;-79
2022/11/09 04:29:24;;;;;;;108.00;71.32;;;;;;;12.93;69.05;101574.56;4900045;29;20051;-80
2022/11/09 04:31:51;;;;;;;107.93;70.50;;;;;;;13.44;68.85;101640.53;4894918;29;20278;-79
2022/11/09 04:34:18;;;;;;;107.15;70.70;;;;;;;12.88;68.33;101536.81;4900837;29;20056;-81
2022/11/09 04:36:47;;;;;;;109.05;73.25;;;;;;;13.40;68.74;101641.78;4901146;29;20156;-81
2022/11/09 04:39:14;;;;;;;103.53;70.32;;;;;;;13.33;69.08;101640.59;4900747;29;20119;-82
2022/11/09 04:41:43;;;;;;;107.22;71.00;;;;;;;12.83;69.47;101547.84;4900126;29;20316;-81
2022/11/09 04:44:10;;;;;;;110.10;70.40;;;;;;;13.23;68.99;101605.81;4900903;29;20078;-81
2022/11/09 04:46:39;;;;;;;112.45;72.25;;;;;;;13.15;69.44;101602.09;4899582;29;20429;-81
2022/11/09 04:49:05;;;;;;;111.00;72.25;;;;;;;13.06;69.22;101587.75;4902659;29;20504;-80
2022/11/09 04:51:34;;;;;;;111.03;71.43;;;;;;;13.18;69.28;101607.16;4903057;29;20356;-81
2022/11/09 04:54:00;;;;;;;104.88;71.95;;;;;;;13.24;69.73;101628.00;4899272;29;20286;-81
2022/11/09 04:56:28;;;;;;;99.88;70.68;;;;;;;13.17;69.23;101610.81;4900822;29;20062;-83
2022/11/09 04:58:54;;;;;;;106.55;71.60;;;;;;;13.29;68.97;101631.16;4898367;29;20056;-81
2022/11/09 05:01:24;;;;;;;111.90;74.28;;;;;;;13.26;69.36;101623.38;4898534;29;20246;-81
2022/11/09 05:03:50;;;;;;;105.60;71.13;;;;;;;13.16;69.70;101598.47;4895359;29;20641;-82
2022/11/09 05:06:32;;;;;;;108.50;70.75;;;;;;;13.09;69.97;101587.47;4900522;29;20054;-81
2022/11/09 05:09:02;;;;;;;;;;;;;;;13.23;70.04;101615.66;4900782;29;20070;-81
2022/11/09 05:11:31;;;;;;;112.07;72.75;;;;;;;13.10;69.42;101598.97;4917227;28;20355;-80
2022/11/09 05:14:01;;;;;;;110.10;74.30;;;;;;;13.02;69.71;101592.47;4900745;29;20066;-82
2022/11/09 05:16:29;;;;;;;106.95;71.75;;;;;;;13.12;70.22;101615.69;4898689;29;20055;-82
2022/11/09 05:18:59;;;;;;;107.55;73.00;;;;;;;12.98;70.12;101599.03;4901278;29;20062;-83
2022/11/09 05:21:26;;;;;;;107.03;70.40;;;;;;;13.09;70.42;101618.63;4899863;29;20268;-81
2022/11/09 05:23:59;;;;;;;116.28;74.00;;;;;;;12.88;69.79;101589.25;4897525;29;20061;-82
2022/11/09 05:26:30;;;;;;;107.80;69.95;;;;;;;12.99;69.97;101611.41;4897176;29;20052;-81
2022/11/09 05:28:58;;;;;;;109.30;72.22;;;;;;;12.81;70.06;101591.59;4901353;29;20059;-82
2022/11/09 05:31:27;;;;;;;119.60;76.35;;;;;;;12.96;70.03;101613.44;4894933;29;20505;-82
2022/11/09 05:33:54;;;;;;;111.10;71.20;;;;;;;13.16;69.41;101644.66;4899470;29;20048;-82
2022/11/09 05:36:21;;;;;;;106.07;70.65;;;;;;;13.13;69.31;101634.25;4899097;29;20733;-80
2022/11/09 05:38:52;;;;;;;114.13;76.45;;;;;;;12.86;69.53;101593.88;4896214;29;20048;-80
2022/11/09 05:41:19;;;;;;;115.28;74.22;;;;;;;12.77;69.77;101584.84;4898176;29;20059;-82
2022/11/09 05:43:46;;;;;;;116.30;75.65;;;;;;;12.78;70.10;101599.84;4898853;29;20058;-82
2022/11/09 05:46:14;;;;;;;102.55;70.00;;;;;;;12.68;69.94;101582.94;4905008;29;20115;-80
2022/11/09 05:48:44;;;;;;;108.07;73.78;;;;;;;13.03;70.15;101636.84;4916538;29;20792;-82
2022/11/09 05:51:13;;;;;;;111.50;72.40;;;;;;;13.02;69.60;101634.28;4899019;29;20495;-80
2022/11/09 05:53:39;;;;;;;119.60;74.75;;;;;;;12.85;70.11;101621.50;4901069;29;20059;-82
2022/11/09 05:56:13;;;;;;;109.72;73.03;;;;;;;12.96;69.87;101635.63;4895886;29;20055;-83
2022/11/09 05:58:40;;;;;;;108.10;70.47;;;;;;;12.32;70.15;101543.19;4902142;29;20669;-81
2022/11/09 06:01:13;;;;;;;111.50;73.95;;;;;;;12.78;70.66;101615.81;4887088;29;20259;-81
2022/11/09 06:03:42;;;;;;;108.63;74.28;;;;;;;12.83;70.08;101613.63;4894914;29;20060;-82
2022/11/09 06:06:11;;;;;;;111.35;72.68;;;;;;;12.80;70.87;101608.56;4895565;29;20055;-81
2022/11/09 06:08:39;;;;;;;112.68;69.80;;;;;;;12.92;70.63;101628.88;4897664;29;20047;-82
2022/11/09 06:11:12;;;;;;;110.22;71.03;;;;;;;12.79;70.98;101606.84;4907849;29;20059;-82
2022/11/09 06:13:52;;;;;;;108.63;71.28;;;;;;;12.79;71.43;101612.19;4896223;28;20520;-82
2022/11/09 06:16:30;;;;;;;109.68;72.05;;;;;;;12.88;70.79;101637.22;4880083;29;20063;-82
2022/11/09 06:19:02;;;;;;;112.82;72.40;;;;;;;12.75;71.01;101621.41;4881044;29;20056;-81
2022/11/09 06:21:32;;;;;;;111.40;76.13;;;;;;;12.71;71.32;101609.31;4896751;29;20050;-80
2022/11/09 06:27:26;;;;;;;112.60;74.57;;;;;;;12.90;71.15;101638.81;4879000;29;20047;-80
2022/11/09 06:29:53;;;;;;;121.30;74.22;;;;;;;13.01;70.93;101644.09;4883257;29;20541;-81
2022/11/09 06:32:23;;;;;;;120.57;74.63;;;;;;;12.72;70.74;101589.66;4884762;29;20523;-79
2022/11/09 06:34:50;;;;;;;107.75;73.35;;;;;;;12.94;70.91;101626.91;4897702;29;20487;-80
2022/11/09 06:37:34;;;;;;;113.55;77.28;;;;;;;13.04;70.79;101649.16;4874477;28;20052;-80
2022/11/09 06:40:13;;;;;;;115.47;76.63;;;;;;;13.09;70.67;101650.63;4822740;29;20059;-81
2022/11/09 06:42:45;;;;;;;117.65;76.70;;;;;;;12.96;70.99;101629.44;4876018;29;20910;-80
2022/11/09 06:45:15;;;;;;;119.93;76.00;;;;;;;13.14;70.20;101632.41;4882723;29;20105;-80
2022/11/09 06:47:44;;;;;;;128.80;78.72;;;;;;;13.13;70.31;101641.38;4875660;29;20120;-81
2022/11/09 06:50:18;;;;;;;119.57;78.57;;;;;;;12.86;70.23;101607.19;4873138;29;20051;-81
2022/11/09 06:52:45;;;;;;;115.50;78.13;;;;;;;13.17;71.08;101650.81;4873010;29;20056;-81
2022/11/09 06:55:11;;;;;;;117.18;79.15;;;;;;;13.05;71.58;101640.19;4884123;29;20078;-79
2022/11/09 06:57:38;;;;;;;123.78;79.43;;;;;;;13.16;71.25;101673.13;4884892;29;20546;-82
2022/11/09 07:00:06;;;;;;;126.32;80.47;;;;;;;13.27;70.57;101670.44;4885040;29;20135;-80
2022/11/09 07:02:32;;;;;;;122.65;80.20;;;;;;;13.26;70.70;101658.06;4882720;29;20070;-80
2022/11/09 07:05:02;;;;;;;120.07;80.95;;;;;;;12.85;70.85;101590.38;4878496;29;20059;-80
2022/11/09 07:07:30;;;;;;;113.18;82.53;;;;;;;13.26;70.98;101660.72;4904114;29;20484;-80
2022/11/09 07:09:57;;;;;;;120.90;78.70;;;;;;;13.35;70.79;101668.00;4896941;29;20169;-81
2022/11/09 07:12:25;;;;;;;125.30;85.85;;;;;;;13.31;69.78;101660.38;4906724;29;20494;-80
2022/11/09 07:14:51;;;;;;;130.30;86.50;;;;;;;13.50;69.65;101681.00;4907467;29;20421;-80
2022/11/09 07:17:19;;;;;;;140.70;88.40;;;;;;;13.56;69.12;101691.16;4898577;29;20051;-80
2022/11/09 07:19:46;;;;;;;150.70;92.75;;;;;;;13.53;68.68;101670.06;4896818;29;20052;-80
2022/11/09 07:22:13;;;;;;;147.77;93.93;;;;;;;13.48;68.57;101667.78;4897332;29;20149;-81
2022/11/09 07:24:39;;;;;;;143.20;92.40;;;;;;;13.64;68.98;101702.00;4923784;28;20517;-81
2022/11/09 07:27:06;;;;;;;141.55;94.90;;;;;;;13.64;68.75;101694.00;4906963;29;20595;-80
2022/11/09 07:29:34;;;;;;;141.85;91.65;;;;;;;13.59;68.94;101682.88;4896914;29;20243;-82
2022/11/09 07:32:04;;;;;;;135.93;92.60;;;;;;;13.66;68.97;101690.22;4887730;29;20596;-81
2022/11/09 07:34:31;;;;;;;144.07;94.60;;;;;;;13.65;69.06;101691.22;4869857;29;20062;-81
2022/11/09 07:36:58;;;;;;;142.40;91.68;;;;;;;13.66;68.21;101695.56;4878836;29;20059;-82
2022/11/09 07:39:27;;;;;;;147.60;93.10;;;;;;;13.79;67.79;101687.38;4876538;29;20765;-81
2022/11/09 07:42:03;;;;;;;138.07;91.13;;;;;;;13.00;67.64;101559.75;4890463;29;20529;-81
2022/11/09 07:44:42;;;;;;;136.25;90.72;;;;;;;13.74;67.78;101689.63;4870352;29;20191;-82
2022/11/09 07:47:13;;;;;;;145.60;90.97;;;;;;;13.72;67.92;101672.88;4857034;29;20058;-81
2022/11/09 07:49:44;;;;;;;139.18;94.05;;;;;;;13.83;67.46;101686.13;4857199;29;20532;-82
2022/11/09 07:52:15;;;;;;;152.75;96.15;;;;;;;13.59;67.39;101650.88;4858867;29;20060;-82
2022/11/09 07:54:47;;;;;;;143.25;95.05;;;;;;;13.67;67.29;101651.09;4846354;29;20543;-81
2022/11/09 07:57:18;;;;;;;149.52;95.72;;;;;;;13.96;66.72;101682.44;4862879;29;20059;-80
2022/11/09 07:59:45;;;;;;;149.07;97.20;;;;;;;13.79;66.46;101650.03;4883772;29;20507;-80
2022/11/09 08:02:15;;;;;;;146.45;94.28;;;;;;;13.81;66.83;101663.22;4870697;29;20474;-81
2022/11/09 08:04:46;;;;;;;149.95;94.32;;;;;;;13.88;67.09;101673.25;4842354;29;20139;-81
2022/11/09 08:07:18;;;;;;;150.52;97.78;;;;;;;13.98;67.24;101691.13;4844338;29;20418;-81
2022/11/09 08:09:47;;;;;;;142.63;93.55;;;;;;;13.94;66.83;101674.56;4808869;29;20751;-80
2022/11/09 08:12:20;;;;;;;144.85;98.63;;;;;;;13.80;66.92;101661.53;4845263;29;20170;-82
2022/11/09 08:14:52;;;;;;;140.93;94.18;;;;;;;14.04;67.14;101706.63;4882632;29;20139;-79
2022/11/09 08:17:18;;;;;;;152.25;95.88;;;;;;;13.99;67.24;101683.00;4878625;29;20971;-82
2022/11/09 08:19:45;;;;;;;150.23;95.82;;;;;;;13.74;67.31;101640.69;4881865;29;20138;-82
2022/11/09 08:22:12;;;;;;;140.13;94.20;;;;;;;14.06;67.43;101694.00;4880322;29;20143;-81
2022/11/09 08:24:41;;;;;;;140.75;90.35;;;;;;;14.23;66.79;101704.06;4879892;29;20569;-81
2022/11/09 08:27:08;;;;;;;136.65;92.10;;;;;;;14.12;66.99;101693.47;4880597;29;20056;-80
2022/11/09 08:29:36;;;;;;;137.48;92.30;;;;;;;14.16;66.47;101694.91;4879180;29;20066;-81
2022/11/09 08:32:05;;;;;;;139.40;93.20;;;;;;;14.34;66.46;101697.78;4879168;29;20581;-82
2022/11/09 08:34:39;;;;;;;133.52;91.50;;;;;;;14.22;65.59;101680.16;4876887;29;20154;-80
2022/11/09 08:37:09;;;;;;;127.65;89.47;;;;;;;14.26;66.11;101679.75;4863739;29;20052;-81
2022/11/09 08:39:36;;;;;;;142.25;91.07;;;;;;;14.47;65.82;101705.59;4878939;29;20453;-81
2022/11/09 08:42:09;;;;;;;136.43;91.93;;;;;;;14.52;65.58;101708.69;4867455;29;20048;-82
2022/11/09 08:44:36;;;;;;;131.88;89.78;;;;;;;14.51;64.41;101683.81;4861239;29;20052;-81
2022/11/09 08:47:06;;;;;;;136.63;89.15;;;;;;;14.54;65.19;101690.75;4869815;29;20056;-81
2022/11/09 08:49:34;;;;;;;140.95;92.68;;;;;;;14.62;64.71;101700.75;4878486;29;20324;-82
2022/11/09 08:52:03;;;;;;;133.35;90.40;;;;;;;14.65;64.55;101705.81;4879073;29;20054;-82
2022/11/09 08:54:30;;;;;;;143.07;93.47;;;;;;;14.66;64.38;101696.78;4884382;29;20592;-80
2022/11/09 08:56:57;;;;;;;133.57;90.75;;;;;;;14.81;64.45;101705.28;4901955;29;20532;-82
2022/11/09 08:59:30;;;;;;;134.70;90.45;;;;;;;14.70;64.45;101677.69;4910832;29;20516;-81
2022/11/09 09:02:00;;;;;;;140.77;92.43;;;;;;;14.81;64.70;101686.59;4912841;28;20055;-81
2022/11/09 09:04:29;;;;;;;134.70;92.22;;;;;;;14.56;65.28;101648.66;4878269;29;20087;-82
2022/11/09 09:06:56;;;;;;;132.60;91.32;;;;;;;14.75;64.75;101680.78;4886352;29;20138;-82
2022/11/09 09:09:26;;;;;;;145.98;95.47;;;;;;;14.82;65.03;101697.13;4900880;29;20480;-82
2022/11/09 09:11:53;;;;;;;134.15;93.88;;;;;;;14.83;64.49;101676.56;4893696;28;20058;-81
2022/11/09 09:14:23;;;;;;;135.32;89.70;;;;;;;15.02;64.31;101689.97;4897723;29;20130;-81
2022/11/09 09:16:51;;;;;;;128.35;88.50;;;;;;;15.08;64.22;101686.75;4887881;29;20329;-81
2022/11/09 09:19:21;;;;;;;;;;;;;;;15.25;63.35;101687.88;4857818;29;20070;-82
2022/11/09 09:21:48;;;;;;;132.07;89.82;;;;;;;15.15;63.75;101673.69;4858413;29;20267;-81
2022/11/09 09:24:14;;;;;;;125.97;86.60;;;;;;;15.38;63.60;101692.94;4862479;29;20088;-81
2022/11/09 09:26:43;;;;;;;132.52;93.05;;;;;;;15.38;63.19;101674.22;4869727;29;21019;-82
2022/11/09 09:29:12;;;;;;;136.55;94.38;;;;;;;15.58;63.08;101686.63;4887777;29;20421;-83
2022/11/09 09:31:39;;;;;;;128.52;90.18;;;;;;;15.73;62.59;101696.91;4879503;29;20129;-83
2022/11/09 09:34:10;;;;;;;142.70;92.85;;;;;;;15.88;62.10;101687.44;4881640;29;20469;-80
2022/11/09 09:36:43;;;;;;;134.90;92.32;;;;;;;15.79;61.52;101656.16;4879257;29;20066;-83
2022/11/09 09:39:16;;;;;;;137.68;92.55;;;;;;;16.12;61.08;101689.63;4875669;29;20379;-81
2022/11/09 09:41:51;;;;;;;125.70;90.13;;;;;;;16.28;60.47;101691.66;4873130;29;20055;-82
2022/11/09 09:44:33;;;;;;;134.90;95.82;;;;;;;16.32;60.01;101677.00;4877153;29;20058;-80
2022/11/09 09:47:05;;;;;;;;;;;;;;;16.48;59.49;101684.41;4878243;29;20504;-81
2022/11/09 09:49:46;;;;;;;133.77;89.70;;;;;;;16.52;60.11;101666.16;4876291;29;20464;-80
2022/11/09 09:52:22;;;;;;;126.25;88.50;;;;;;;16.79;59.29;101681.41;4899568;29;20055;-81
2022/11/09 09:55:08;;;;;;;141.50;93.07;;;;;;;16.80;58.69;101680.44;4884174;29;20059;-80
2022/11/09 09:57:53;;;;;;;139.85;92.90;;;;;;;16.73;58.52;101669.44;4901787;29;20208;-81
2022/11/09 10:00:25;;;;;;;132.32;88.75;;;;;;;16.88;59.05;101689.41;4899206;29;20304;-80
2022/11/09 10:02:55;;;;;;;137.25;92.35;;;;;;;16.51;58.41;101637.69;4879179;29;20502;-81
2022/11/09 10:05:35;;;;;;;128.02;88.68;;;;;;;16.76;58.56;101663.75;4879312;29;20052;-81
2022/11/09 10:08:02;;;;;;;137.35;92.40;;;;;;;16.54;58.29;101627.50;4860451;29;20060;-81
2022/11/09 10:10:53;;;;;;;131.07;93.00;;;;;;;16.44;58.74;101622.19;4882725;29;20055;-81
2022/11/09 10:13:47;;;;;;;136.00;92.80;;;;;;;16.39;58.85;101591.50;4883899;29;20050;-81
2022/11/09 10:16:35;;;;;;;134.43;90.93;;;;;;;16.79;58.34;101642.03;4861272;29;20052;-79
2022/11/09 10:19:33;;;;;;;132.57;91.35;;;;;;;15.95;57.78;101487.69;4911077;28;20083;-80
2022/11/09 10:22:17;;;;;;;127.32;85.22;;;;;;;17.27;57.88;101662.28;4862160;29;20059;-80
2022/11/09 10:25:12;;;;;;;124.35;87.53;;;;;;;17.51;57.67;101653.59;4863245;29;20562;-81
2022/11/09 10:28:04;;;;;;;125.05;88.18;;;;;;;17.85;56.85;101654.69;4881537;29;20059;-81
2022/11/09 10:30:35;;;;;;;125.53;87.68;;;;;;;17.51;56.56;101594.53;4872733;29;20055;-82
2022/11/09 10:33:20;;;;;;;120.05;86.20;;;;;;;17.89;56.33;101630.03;4862415;29;20558;-83
2022/11/09 10:36:20;;;;;;;130.98;88.00;;;;;;;18.12;55.77;101653.66;4862438;29;20079;-81
2022/11/09 10:38:49;;;;;;;125.28;88.70;;;;;;;18.24;55.36;101648.84;4862194;29;20633;-81
2022/11/09 10:41:24;;;;;;;117.93;85.90;;;;;;;18.07;55.47;101621.06;4858802;29;20063;-80
2022/11/09 10:43:50;;;;;;;126.47;85.72;;;;;;;18.37;55.55;101649.22;4861950;29;20080;-82
2022/11/09 10:46:23;;;;;;;113.45;81.47;;;;;;;18.49;55.29;101637.16;4862974;29;20059;-82
2022/11/09 10:48:56;;;;;;;116.25;82.75;;;;;;;18.34;55.02;101603.88;4871453;29;20357;-83
2022/11/09 10:51:40;;;;;;;109.40;79.30;;;;;;;18.63;54.60;101626.81;4870354;29;20063;-82
2022/11/09 10:54:19;;;;;;;110.90;82.68;;;;;;;17.32;54.60;101449.81;4860279;29;20059;-83
2022/11/09 10:56:52;;;;;;;121.70;85.85;;;;;;;17.65;54.65;101506.34;4883007;29;20581;-80
2022/11/09 10:59:54;;;;;;;115.85;83.32;;;;;;;18.20;54.75;101608.00;4879741;29;20063;-82
2022/11/09 11:02:27;;;;;;;114.50;81.07;;;;;;;17.91;55.30;101563.56;4855049;29;20063;-82
2022/11/09 11:05:09;;;;;;;117.45;82.00;;;;;;;17.96;55.98;101608.72;4847521;29;20224;-80
2022/11/09 11:07:51;;;;;;;119.85;82.45;;;;;;;17.91;56.38;101600.31;4831049;29;20433;-81
2022/11/09 11:10:35;;;;;;;121.03;83.60;;;;;;;17.75;56.62;101602.91;4820154;29;20090;-81
2022/11/09 11:13:20;;;;;;;121.85;81.65;;;;;;;17.03;57.33;101503.78;4834874;29;20428;-81
2022/11/09 11:15:53;;;;;;;118.25;82.45;;;;;;;17.34;58.25;101559.69;4841213;29;20603;-82
2022/11/09 11:18:35;;;;;;;117.18;82.00;;;;;;;17.08;58.30;101526.47;4860657;29;20419;-82
2022/11/09 11:21:10;;;;;;;113.57;80.30;;;;;;;17.46;57.87;101585.28;4879626;29;20168;-81
2022/11/09 11:23:47;;;;;;;115.78;79.53;;;;;;;17.37;57.48;101595.09;4877367;29;20052;-82
2022/11/09 11:26:31;;;;;;;108.25;77.40;;;;;;;17.30;58.01;101591.34;4877946;29;20066;-82